Report METAR

 

LIML - Milano/Linate, Italy
Distance from station: NO 27km
Dati ricevuti: 15/11/2019 23:50
Mist, Nuvoloso
Mist, Nuvoloso
 Vento da SE
Vento: SE 4 km/h
Temperatura: 6°C
P.to Rugiada: 6°C
Umidità: 100%
Barometro: 1006 hPa
Summary: Mist
Nuvole: Molto nuvoloso
Visibility: 2 km
Cloud details: Molto nuvoloso 61 m
2019/11/15 22:50 LIML 152250Z 13002KT 2000 BR BKN002 06/06 Q1006 NOSIG
LIME - Bergamo/Orio Ser, Italy
Distance from station: NNE 43km
Dati ricevuti: 15/11/2019 23:50
Molto nuvoloso
Molto nuvoloso
 Vento da NNE
Vento: NNE 7 km/h
Temperatura: 7°C
Temperatura Vento: 6°C
P.to Rugiada: 7°C
Umidità: 100%
Barometro: 1005 hPa
Nuvole: Molto nuvoloso
Visibility: 8 km
Cloud details: Molto nuvoloso 914 m
2019/11/15 22:50 LIME 152250Z 03004KT 8000 BKN030 07/07 Q1005 NOSIG
 
LIMS - Piacenza, it-Afb, Italy
Distance from station: SSE 45km
Dati ricevuti: 15/11/2019 18:55
DATI Obsoleti
Pioviggine, Mist, Nuvoloso
Pioviggine, Mist, Nuvoloso
 Vento da Variabile
Vento: Variabile 0 km/h
Temperatura: 8°C
P.to Rugiada: 8°C
Umidità: 100%
Barometro: 1002 hPa
Summary: Pioviggine, Mist
Nuvole: Molto nuvoloso
Visibility: 5 km
Cloud details: Parz. nuvoloso 305 m
Molto nuvoloso 762 m
2019/11/15 17:55 LIMS 151755Z /////KT 5000 -RA BR SCT010 BKN025 08/08 Q1002
LIPO - Brescia/Montichi, Italy
Distance from station: ENE 65km
Dati ricevuti: 15/11/2019 23:50
Mist, Nuvoloso
Mist, Nuvoloso
 Vento da N
Vento: N 9 km/h
Temperatura: 8°C
Temperatura Vento: 6°C
P.to Rugiada: 8°C
Umidità: 100%
Barometro: 1006 hPa
Summary: Mist
Nuvole: Molto nuvoloso
Visibility: 5 km
Cloud details: Molto nuvoloso 610 m
2019/11/15 22:50 LIPO 152250Z 36005KT 5000 BR BKN020 08/08 Q1006